sensor_id;sensor_type;location;lat;lon;timestamp;pressure;altitude;pressure_sealevel;temperature;humidity
31771;BME280;18343;50.152;8.182;2022-12-07T00:02:41;97516.00;;;3.58;100.00
31771;BME280;18343;50.152;8.182;2022-12-07T00:05:29;97504.50;;;3.58;100.00
31771;BME280;18343;50.152;8.182;2022-12-07T00:08:15;97510.66;;;3.58;100.00
31771;BME280;18343;50.152;8.182;2022-12-07T00:11:02;97507.03;;;3.59;100.00
31771;BME280;18343;50.152;8.182;2022-12-07T00:13:53;97497.38;;;3.58;100.00
31771;BME280;18343;50.152;8.182;2022-12-07T00:16:39;97488.41;;;3.59;100.00
31771;BME280;18343;50.152;8.182;2022-12-07T00:19:32;97486.59;;;3.60;100.00
31771;BME280;18343;50.152;8.182;2022-12-07T00:22:17;97475.13;;;3.59;100.00
31771;BME280;18343;50.152;8.182;2022-12-07T00:25:03;97481.28;;;3.60;100.00
31771;BME280;18343;50.152;8.182;2022-12-07T00:27:49;97471.78;;;3.57;100.00
31771;BME280;18343;50.152;8.182;2022-12-07T00:30:34;97471.63;;;3.59;100.00
31771;BME280;18343;50.152;8.182;2022-12-07T00:33:19;97480.44;;;3.59;100.00
31771;BME280;18343;50.152;8.182;2022-12-07T00:36:09;97478.75;;;3.58;100.00
31771;BME280;18343;50.152;8.182;2022-12-07T00:38:57;97476.09;;;3.58;100.00
31771;BME280;18343;50.152;8.182;2022-12-07T00:41:42;97478.75;;;3.58;100.00
31771;BME280;18343;50.152;8.182;2022-12-07T00:44:27;97482.41;;;3.57;100.00
31771;BME280;18343;50.152;8.182;2022-12-07T00:47:13;97477.09;;;3.57;100.00
31771;BME280;18343;50.152;8.182;2022-12-07T00:49:58;97472.75;;;3.56;100.00
31771;BME280;18343;50.152;8.182;2022-12-07T00:52:47;97476.44;;;3.55;100.00
31771;BME280;18343;50.152;8.182;2022-12-07T00:55:33;97467.44;;;3.56;100.00
31771;BME280;18343;50.152;8.182;2022-12-07T00:58:19;97458.81;;;3.54;100.00
31771;BME280;18343;50.152;8.182;2022-12-07T01:01:06;97464.13;;;3.54;100.00
31771;BME280;18343;50.152;8.182;2022-12-07T01:03:52;97464.97;;;3.55;100.00
31771;BME280;18343;50.152;8.182;2022-12-07T01:06:39;97468.59;;;3.54;100.00
31771;BME280;18343;50.152;8.182;2022-12-07T01:09:25;97465.78;;;3.55;100.00
31771;BME280;18343;50.152;8.182;2022-12-07T01:12:10;97460.63;;;3.54;100.00
31771;BME280;18343;50.152;8.182;2022-12-07T01:14:56;97464.13;;;3.54;100.00
31771;BME280;18343;50.152;8.182;2022-12-07T01:17:42;97446.34;;;3.55;100.00
31771;BME280;18343;50.152;8.182;2022-12-07T01:20:27;97449.84;;;3.55;100.00
31771;BME280;18343;50.152;8.182;2022-12-07T01:23:12;97446.50;;;3.53;100.00
31771;BME280;18343;50.152;8.182;2022-12-07T01:26:00;97445.50;;;3.54;100.00
31771;BME280;18343;50.152;8.182;2022-12-07T01:28:46;97450.81;;;3.54;100.00
31771;BME280;18343;50.152;8.182;2022-12-07T01:31:31;97453.50;;;3.54;100.00
31771;BME280;18343;50.152;8.182;2022-12-07T01:34:17;97457.13;;;3.53;100.00
31771;BME280;18343;50.152;8.182;2022-12-07T01:37:04;97452.78;;;3.52;100.00
31771;BME280;18343;50.152;8.182;2022-12-07T01:39:52;97453.63;;;3.53;100.00
31771;BME280;18343;50.152;8.182;2022-12-07T01:42:38;97453.63;;;3.53;100.00
31771;BME280;18343;50.152;8.182;2022-12-07T01:45:39;97451.97;;;3.52;100.00
31771;BME280;18343;50.152;8.182;2022-12-07T01:48:30;97449.44;;;3.50;100.00
31771;BME280;18343;50.152;8.182;2022-12-07T01:51:16;97451.97;;;3.52;100.00
31771;BME280;18343;50.152;8.182;2022-12-07T01:54:08;97445.81;;;3.51;100.00
31771;BME280;18343;50.152;8.182;2022-12-07T01:56:57;97444.13;;;3.50;100.00
31771;BME280;18343;50.152;8.182;2022-12-07T01:59:45;97442.31;;;3.51;100.00
31771;BME280;18343;50.152;8.182;2022-12-07T02:02:35;97437.81;;;3.51;100.00
31771;BME280;18343;50.152;8.182;2022-12-07T02:05:23;97433.50;;;3.50;100.00
31771;BME280;18343;50.152;8.182;2022-12-07T02:08:10;97430.69;;;3.52;100.00
31771;BME280;18343;50.152;8.182;2022-12-07T02:10:56;97434.19;;;3.52;100.00
31771;BME280;18343;50.152;8.182;2022-12-07T02:13:43;97429.00;;;3.51;100.00
31771;BME280;18343;50.152;8.182;2022-12-07T02:16:38;97433.50;;;3.50;100.00
31771;BME280;18343;50.152;8.182;2022-12-07T02:20:09;97427.19;;;3.51;100.00
31771;BME280;18343;50.152;8.182;2022-12-07T02:23:38;97427.34;;;3.50;100.00
31771;BME280;18343;50.152;8.182;2022-12-07T02:30:18;97417.84;;;3.47;100.00
31771;BME280;18343;50.152;8.182;2022-12-07T02:33:07;97410.56;;;3.49;100.00
31771;BME280;18343;50.152;8.182;2022-12-07T02:36:01;97423.00;;;3.49;100.00
31771;BME280;18343;50.152;8.182;2022-12-07T02:38:53;97423.84;;;3.49;100.00
31771;BME280;18343;50.152;8.182;2022-12-07T02:41:44;97422.88;;;3.50;100.00
31771;BME280;18343;50.152;8.182;2022-12-07T02:44:32;97420.19;;;3.50;100.00
31771;BME280;18343;50.152;8.182;2022-12-07T02:47:20;97426.34;;;3.51;100.00
31771;BME280;18343;50.152;8.182;2022-12-07T02:50:08;97421.88;;;3.51;100.00
31771;BME280;18343;50.152;8.182;2022-12-07T02:52:54;97413.91;;;3.51;100.00
31771;BME280;18343;50.152;8.182;2022-12-07T02:55:40;97424.38;;;3.53;100.00
31771;BME280;18343;50.152;8.182;2022-12-07T02:58:38;97416.41;;;3.53;100.00
31771;BME280;18343;50.152;8.182;2022-12-07T03:01:34;97410.41;;;3.51;100.00
31771;BME280;18343;50.152;8.182;2022-12-07T03:04:42;97420.06;;;3.52;100.00
31771;BME280;18343;50.152;8.182;2022-12-07T03:07:36;97413.06;;;3.51;100.00
31771;BME280;18343;50.152;8.182;2022-12-07T03:10:27;97412.78;;;3.54;100.00
31771;BME280;18343;50.152;8.182;2022-12-07T03:13:20;97410.56;;;3.49;100.00
31771;BME280;18343;50.152;8.182;2022-12-07T03:16:12;97406.06;;;3.50;100.00
31771;BME280;18343;50.152;8.182;2022-12-07T03:19:03;97403.28;;;3.51;100.00
31771;BME280;18343;50.152;8.182;2022-12-07T03:21:57;97399.78;;;3.51;100.00
31771;BME280;18343;50.152;8.182;2022-12-07T03:24:46;97398.94;;;3.50;100.00
31771;BME280;18343;50.152;8.182;2022-12-07T03:27:35;97397.13;;;3.51;100.00
31771;BME280;18343;50.152;8.182;2022-12-07T03:30:24;97393.47;;;3.52;100.00
31771;BME280;18343;50.152;8.182;2022-12-07T03:33:17;97396.97;;;3.52;100.00
31771;BME280;18343;50.152;8.182;2022-12-07T03:36:10;97397.81;;;3.53;100.00
31771;BME280;18343;50.152;8.182;2022-12-07T03:39:03;97395.97;;;3.53;100.00
31771;BME280;18343;50.152;8.182;2022-12-07T03:41:54;97402.13;;;3.54;100.00
31771;BME280;18343;50.152;8.182;2022-12-07T03:44:41;97390.53;;;3.55;100.00
31771;BME280;18343;50.152;8.182;2022-12-07T03:47:31;97388.84;;;3.54;100.00
31771;BME280;18343;50.152;8.182;2022-12-07T03:50:25;97388.00;;;3.53;100.00
31771;BME280;18343;50.152;8.182;2022-12-07T03:53:16;97395.00;;;3.54;100.00
31771;BME280;18343;50.152;8.182;2022-12-07T03:56:08;97387.84;;;3.55;100.00
31771;BME280;18343;50.152;8.182;2022-12-07T03:58:54;97380.72;;;3.55;100.00
31771;BME280;18343;50.152;8.182;2022-12-07T04:01:42;97387.84;;;3.55;100.00
31771;BME280;18343;50.152;8.182;2022-12-07T04:04:28;97387.69;;;3.56;100.00
31771;BME280;18343;50.152;8.182;2022-12-07T04:07:14;97385.84;;;3.57;100.00
31771;BME280;18343;50.152;8.182;2022-12-07T04:10:02;97386.84;;;3.56;100.00
31771;BME280;18343;50.152;8.182;2022-12-07T04:12:51;97385.03;;;3.56;100.00
31771;BME280;18343;50.152;8.182;2022-12-07T04:15:37;97387.53;;;3.58;100.00
31771;BME280;18343;50.152;8.182;2022-12-07T04:18:23;97378.72;;;3.57;100.00
31771;BME280;18343;50.152;8.182;2022-12-07T04:21:09;97382.22;;;3.58;100.00
31771;BME280;18343;50.152;8.182;2022-12-07T04:23:54;97377.72;;;3.58;100.00
31771;BME280;18343;50.152;8.182;2022-12-07T04:26:39;97388.22;;;3.60;100.00
31771;BME280;18343;50.152;8.182;2022-12-07T04:29:26;97383.88;;;3.59;100.00
31771;BME280;18343;50.152;8.182;2022-12-07T04:32:11;97384.72;;;3.59;100.00
31771;BME280;18343;50.152;8.182;2022-12-07T04:34:57;97382.91;;;3.60;100.00
31771;BME280;18343;50.152;8.182;2022-12-07T04:37:43;97378.56;;;3.59;100.00
31771;BME280;18343;50.152;8.182;2022-12-07T04:40:31;97375.91;;;3.59;100.00
31771;BME280;18343;50.152;8.182;2022-12-07T04:43:16;97381.91;;;3.61;100.00
31771;BME280;18343;50.152;8.182;2022-12-07T04:46:02;97384.56;;;3.61;100.00
31771;BME280;18343;50.152;8.182;2022-12-07T04:48:48;97380.94;;;3.62;100.00
31771;BME280;18343;50.152;8.182;2022-12-07T04:51:33;97377.44;;;3.61;100.00
31771;BME280;18343;50.152;8.182;2022-12-07T04:54:19;97380.78;;;3.63;100.00
31771;BME280;18343;50.152;8.182;2022-12-07T04:57:04;97377.44;;;3.61;100.00
31771;BME280;18343;50.152;8.182;2022-12-07T04:59:50;97382.59;;;3.63;100.00
31771;BME280;18343;50.152;8.182;2022-12-07T05:02:36;97378.13;;;3.63;100.00
31771;BME280;18343;50.152;8.182;2022-12-07T05:05:22;97379.94;;;3.63;100.00
31771;BME280;18343;50.152;8.182;2022-12-07T05:08:08;97380.78;;;3.63;100.00
31771;BME280;18343;50.152;8.182;2022-12-07T05:10:53;97384.28;;;3.64;100.00
31771;BME280;18343;50.152;8.182;2022-12-07T05:13:38;97373.63;;;3.64;100.00
31771;BME280;18343;50.152;8.182;2022-12-07T05:16:24;97385.25;;;3.63;100.00
31771;BME280;18343;50.152;8.182;2022-12-07T05:19:11;97380.78;;;3.63;100.00
31771;BME280;18343;50.152;8.182;2022-12-07T05:21:56;97377.13;;;3.64;100.00
31771;BME280;18343;50.152;8.182;2022-12-07T05:24:42;97376.28;;;3.64;100.00
31771;BME280;18343;50.152;8.182;2022-12-07T05:27:27;97380.63;;;3.65;100.00
31771;BME280;18343;50.152;8.182;2022-12-07T05:30:13;97379.66;;;3.66;100.00
31771;BME280;18343;50.152;8.182;2022-12-07T05:32:58;97379.66;;;3.66;100.00
31771;BME280;18343;50.152;8.182;2022-12-07T05:35:44;97380.47;;;3.66;100.00
31771;BME280;18343;50.152;8.182;2022-12-07T05:38:29;97377.81;;;3.66;100.00
31771;BME280;18343;50.152;8.182;2022-12-07T05:41:16;97377.00;;;3.66;100.00
31771;BME280;18343;50.152;8.182;2022-12-07T05:44:21;97376.84;;;3.67;100.00
31771;BME280;18343;50.152;8.182;2022-12-07T05:47:06;97374.19;;;3.67;100.00
31771;BME280;18343;50.152;8.182;2022-12-07T05:49:52;97383.00;;;3.68;100.00
31771;BME280;18343;50.152;8.182;2022-12-07T05:52:39;97376.84;;;3.67;100.00
31771;BME280;18343;50.152;8.182;2022-12-07T05:55:24;97382.16;;;3.67;100.00
31771;BME280;18343;50.152;8.182;2022-12-07T05:58:10;97387.47;;;3.67;100.00
31771;BME280;18343;50.152;8.182;2022-12-07T06:01:14;97382.16;;;3.67;100.00
31771;BME280;18343;50.152;8.182;2022-12-07T06:03:59;97380.34;;;3.68;100.00
31771;BME280;18343;50.152;8.182;2022-12-07T06:06:45;97383.81;;;3.68;100.00
31771;BME280;18343;50.152;8.182;2022-12-07T06:09:32;97379.34;;;3.69;100.00
31771;BME280;18343;50.152;8.182;2022-12-07T06:12:17;97380.19;;;3.69;100.00
31771;BME280;18343;50.152;8.182;2022-12-07T06:15:24;97379.34;;;3.69;100.00
31771;BME280;18343;50.152;8.182;2022-12-07T06:18:09;97382.00;;;3.69;100.00
31771;BME280;18343;50.152;8.182;2022-12-07T06:20:54;97381.03;;;3.70;100.00
31771;BME280;18343;50.152;8.182;2022-12-07T06:23:40;97378.38;;;3.70;100.00
31771;BME280;18343;50.152;8.182;2022-12-07T06:26:26;97380.19;;;3.69;100.00
31771;BME280;18343;50.152;8.182;2022-12-07T06:29:12;97378.38;;;3.70;100.00
31771;BME280;18343;50.152;8.182;2022-12-07T06:31:57;97373.03;;;3.70;100.00
31771;BME280;18343;50.152;8.182;2022-12-07T06:34:43;97375.69;;;3.70;100.00
31771;BME280;18343;50.152;8.182;2022-12-07T06:37:28;97375.69;;;3.70;100.00
31771;BME280;18343;50.152;8.182;2022-12-07T06:40:14;97380.03;;;3.71;100.00
31771;BME280;18343;50.152;8.182;2022-12-07T06:43:00;97384.50;;;3.70;100.00
31771;BME280;18343;50.152;8.182;2022-12-07T06:45:45;97380.03;;;3.71;100.00
31771;BME280;18343;50.152;8.182;2022-12-07T06:48:31;97381.84;;;3.70;100.00
31771;BME280;18343;50.152;8.182;2022-12-07T06:51:16;97389.00;;;3.70;100.00
31771;BME280;18343;50.152;8.182;2022-12-07T06:54:02;97387.31;;;3.69;100.00
31771;BME280;18343;50.152;8.182;2022-12-07T06:56:48;97384.50;;;3.70;100.00
31771;BME280;18343;50.152;8.182;2022-12-07T06:59:34;97392.63;;;3.69;100.00
31771;BME280;18343;50.152;8.182;2022-12-07T07:02:20;97389.97;;;3.69;100.00
31771;BME280;18343;50.152;8.182;2022-12-07T07:05:06;97397.13;;;3.68;100.00
31771;BME280;18343;50.152;8.182;2022-12-07T07:07:52;97386.50;;;3.68;100.00
31771;BME280;18343;50.152;8.182;2022-12-07T07:10:38;97395.31;;;3.69;100.00
31771;BME280;18343;50.152;8.182;2022-12-07T07:13:23;97393.47;;;3.69;100.00
31771;BME280;18343;50.152;8.182;2022-12-07T07:16:10;97394.47;;;3.68;100.00
31771;BME280;18343;50.152;8.182;2022-12-07T07:18:55;97394.47;;;3.68;100.00
31771;BME280;18343;50.152;8.182;2022-12-07T07:21:40;97411.25;;;3.69;100.00
31771;BME280;18343;50.152;8.182;2022-12-07T07:24:26;97400.63;;;3.69;100.00
31771;BME280;18343;50.152;8.182;2022-12-07T07:27:11;97406.09;;;3.67;100.00
31771;BME280;18343;50.152;8.182;2022-12-07T07:29:57;97405.09;;;3.68;100.00
31771;BME280;18343;50.152;8.182;2022-12-07T07:32:43;97406.09;;;3.67;100.00
31771;BME280;18343;50.152;8.182;2022-12-07T07:35:31;97413.22;;;3.67;100.00
31771;BME280;18343;50.152;8.182;2022-12-07T07:38:17;97408.75;;;3.67;100.00
31771;BME280;18343;50.152;8.182;2022-12-07T07:41:04;97412.41;;;3.66;100.00
31771;BME280;18343;50.152;8.182;2022-12-07T07:43:50;97416.72;;;3.67;100.00
31771;BME280;18343;50.152;8.182;2022-12-07T07:46:35;97421.22;;;3.67;100.00
31771;BME280;18343;50.152;8.182;2022-12-07T07:49:21;97410.56;;;3.67;100.00
31771;BME280;18343;50.152;8.182;2022-12-07T07:52:06;97416.72;;;3.67;100.00
31771;BME280;18343;50.152;8.182;2022-12-07T07:54:52;97422.19;;;3.66;100.00
31771;BME280;18343;50.152;8.182;2022-12-07T07:57:40;97420.38;;;3.66;100.00
31771;BME280;18343;50.152;8.182;2022-12-07T08:00:26;97430.16;;;3.66;100.00
31771;BME280;18343;50.152;8.182;2022-12-07T08:03:11;97423.03;;;3.66;100.00
31771;BME280;18343;50.152;8.182;2022-12-07T08:05:58;97422.03;;;3.67;100.00
31771;BME280;18343;50.152;8.182;2022-12-07T08:08:43;97419.38;;;3.67;100.00
31771;BME280;18343;50.152;8.182;2022-12-07T08:11:29;97418.53;;;3.67;100.00
31771;BME280;18343;50.152;8.182;2022-12-07T08:14:14;97416.72;;;3.67;100.00
31771;BME280;18343;50.152;8.182;2022-12-07T08:17:00;97418.41;;;3.68;100.00
31771;BME280;18343;50.152;8.182;2022-12-07T08:19:46;97418.53;;;3.67;100.00
31771;BME280;18343;50.152;8.182;2022-12-07T08:22:32;97419.38;;;3.67;100.00
31771;BME280;18343;50.152;8.182;2022-12-07T08:25:17;97420.22;;;3.68;100.00
31771;BME280;18343;50.152;8.182;2022-12-07T08:28:02;97421.06;;;3.68;100.00
31771;BME280;18343;50.152;8.182;2022-12-07T08:30:47;97423.56;;;3.70;100.00
31771;BME280;18343;50.152;8.182;2022-12-07T08:33:33;97425.53;;;3.68;100.00
31771;BME280;18343;50.152;8.182;2022-12-07T08:36:19;97427.22;;;3.69;100.00
31771;BME280;18343;50.152;8.182;2022-12-07T08:39:06;97412.94;;;3.70;100.00
31771;BME280;18343;50.152;8.182;2022-12-07T08:41:53;97427.91;;;3.71;100.00
31771;BME280;18343;50.152;8.182;2022-12-07T08:44:38;97429.72;;;3.70;100.00
31771;BME280;18343;50.152;8.182;2022-12-07T08:47:25;97429.72;;;3.70;100.00
31771;BME280;18343;50.152;8.182;2022-12-07T08:50:10;97434.06;;;3.71;100.00
31771;BME280;18343;50.152;8.182;2022-12-07T08:52:58;97435.03;;;3.70;100.00
31771;BME280;18343;50.152;8.182;2022-12-07T08:55:45;97431.41;;;3.71;100.00
31771;BME280;18343;50.152;8.182;2022-12-07T08:58:32;97436.72;;;3.71;100.00
31771;BME280;18343;50.152;8.182;2022-12-07T09:01:18;97434.06;;;3.71;100.00
31771;BME280;18343;50.152;8.182;2022-12-07T09:04:04;97430.41;;;3.72;100.00
31771;BME280;18343;50.152;8.182;2022-12-07T09:06:50;97435.72;;;3.72;100.00
31771;BME280;18343;50.152;8.182;2022-12-07T09:09:35;97439.06;;;3.74;100.00
31771;BME280;18343;50.152;8.182;2022-12-07T09:12:21;97435.59;;;3.74;100.00
31771;BME280;18343;50.152;8.182;2022-12-07T09:15:08;97431.09;;;3.74;100.00
31771;BME280;18343;50.152;8.182;2022-12-07T09:17:53;97442.56;;;3.75;100.00
31771;BME280;18343;50.152;8.182;2022-12-07T09:20:39;97440.75;;;3.76;100.00
31771;BME280;18343;50.152;8.182;2022-12-07T09:23:25;97440.75;;;3.76;100.00
31771;BME280;18343;50.152;8.182;2022-12-07T09:26:11;97445.09;;;3.77;100.00
31771;BME280;18343;50.152;8.182;2022-12-07T09:28:57;97437.94;;;3.77;100.00
31771;BME280;18343;50.152;8.182;2022-12-07T09:31:42;97441.44;;;3.78;100.00
31771;BME280;18343;50.152;8.182;2022-12-07T09:34:30;97443.13;;;3.79;100.00
31771;BME280;18343;50.152;8.182;2022-12-07T09:37:16;97444.78;;;3.80;100.00
31771;BME280;18343;50.152;8.182;2022-12-07T09:40:02;97454.59;;;3.79;100.00
31771;BME280;18343;50.152;8.182;2022-12-07T09:42:50;97443.94;;;3.79;100.00
31771;BME280;18343;50.152;8.182;2022-12-07T09:45:37;97445.78;;;3.79;100.00
31771;BME280;18343;50.152;8.182;2022-12-07T09:48:30;97450.09;;;3.80;100.00
31771;BME280;18343;50.152;8.182;2022-12-07T09:51:20;97443.13;;;3.79;100.00
31771;BME280;18343;50.152;8.182;2022-12-07T09:54:06;97438.63;;;3.79;100.00
31771;BME280;18343;50.152;8.182;2022-12-07T09:56:51;97439.47;;;3.80;100.00
31771;BME280;18343;50.152;8.182;2022-12-07T09:59:39;97436.66;;;3.81;100.00
31771;BME280;18343;50.152;8.182;2022-12-07T10:02:35;97429.53;;;3.82;100.00
31771;BME280;18343;50.152;8.182;2022-12-07T10:05:27;97430.34;;;3.82;100.00
31771;BME280;18343;50.152;8.182;2022-12-07T10:08:17;97429.19;;;3.85;100.00
31771;BME280;18343;50.152;8.182;2022-12-07T10:11:04;97419.53;;;3.84;100.00
31771;BME280;18343;50.152;8.182;2022-12-07T10:13:55;97415.91;;;3.85;100.00
31771;BME280;18343;50.152;8.182;2022-12-07T10:16:55;97413.09;;;3.86;100.00
31771;BME280;18343;50.152;8.182;2022-12-07T10:19:42;97407.75;;;3.86;100.00
31771;BME280;18343;50.152;8.182;2022-12-07T10:22:28;97410.28;;;3.88;100.00
31771;BME280;18343;50.152;8.182;2022-12-07T10:25:19;97405.78;;;3.88;100.00
31771;BME280;18343;50.152;8.182;2022-12-07T10:28:15;97403.13;;;3.88;100.00
31771;BME280;18343;50.152;8.182;2022-12-07T10:31:03;97400.31;;;3.90;100.00
31771;BME280;18343;50.152;8.182;2022-12-07T10:34:01;97404.66;;;3.91;100.00
31771;BME280;18343;50.152;8.182;2022-12-07T10:36:47;97399.19;;;3.92;100.00
31771;BME280;18343;50.152;8.182;2022-12-07T10:39:42;97409.00;;;3.92;100.00
31771;BME280;18343;50.152;8.182;2022-12-07T10:42:29;97404.50;;;3.92;100.00
31771;BME280;18343;50.152;8.182;2022-12-07T10:45:17;97404.34;;;3.94;100.00
31771;BME280;18343;50.152;8.182;2022-12-07T10:48:11;97398.19;;;3.93;100.00
31771;BME280;18343;50.152;8.182;2022-12-07T10:51:07;97390.91;;;3.95;100.00
31771;BME280;18343;50.152;8.182;2022-12-07T10:54:08;97376.75;;;3.95;100.00
31771;BME280;18343;50.152;8.182;2022-12-07T10:57:18;97378.44;;;3.96;100.00
31771;BME280;18343;50.152;8.182;2022-12-07T11:00:19;97374.94;;;3.95;100.00
31771;BME280;18343;50.152;8.182;2022-12-07T11:03:36;97377.44;;;3.97;100.00
31771;BME280;18343;50.152;8.182;2022-12-07T11:06:32;97370.44;;;3.96;100.00
31771;BME280;18343;50.152;8.182;2022-12-07T11:09:52;97374.63;;;3.98;100.00
31771;BME280;18343;50.152;8.182;2022-12-07T11:12:57;97373.78;;;3.98;100.00
31771;BME280;18343;50.152;8.182;2022-12-07T11:16:02;97377.16;;;4.00;100.00
31771;BME280;18343;50.152;8.182;2022-12-07T11:19:23;97374.34;;;4.01;100.00
31771;BME280;18343;50.152;8.182;2022-12-07T11:22:17;97369.00;;;4.01;100.00
31771;BME280;18343;50.152;8.182;2022-12-07T11:25:21;97368.84;;;4.03;100.00
31771;BME280;18343;50.152;8.182;2022-12-07T11:28:25;97355.56;;;4.03;100.00
31771;BME280;18343;50.152;8.182;2022-12-07T11:31:22;97363.38;;;4.04;100.00
31771;BME280;18343;50.152;8.182;2022-12-07T11:34:18;97359.88;;;4.04;100.00
31771;BME280;18343;50.152;8.182;2022-12-07T11:37:11;97348.25;;;4.05;100.00
31771;BME280;18343;50.152;8.182;2022-12-07T11:40:03;97351.59;;;4.07;100.00
31771;BME280;18343;50.152;8.182;2022-12-07T11:42:55;97352.44;;;4.07;100.00
31771;BME280;18343;50.152;8.182;2022-12-07T11:45:47;97342.63;;;4.08;100.00
31771;BME280;18343;50.152;8.182;2022-12-07T11:48:40;97353.97;;;4.10;100.00
31771;BME280;18343;50.152;8.182;2022-12-07T11:51:28;97342.28;;;4.11;100.00
31771;BME280;18343;50.152;8.182;2022-12-07T11:54:19;97346.47;;;4.14;100.00
31771;BME280;18343;50.152;8.182;2022-12-07T11:57:14;97346.31;;;4.15;100.00
31771;BME280;18343;50.152;8.182;2022-12-07T12:00:12;97342.00;;;4.14;100.00
31771;BME280;18343;50.152;8.182;2022-12-07T12:03:03;97336.66;;;4.14;100.00
31771;BME280;18343;50.152;8.182;2022-12-07T12:05:53;97335.53;;;4.17;100.00
31771;BME280;18343;50.152;8.182;2022-12-07T12:08:43;97334.69;;;4.16;100.00
31771;BME280;18343;50.152;8.182;2022-12-07T12:11:48;97317.88;;;4.16;100.00
31771;BME280;18343;50.152;8.182;2022-12-07T12:14:48;97324.88;;;4.17;100.00
31771;BME280;18343;50.152;8.182;2022-12-07T12:18:18;97309.75;;;4.17;100.00
31771;BME280;18343;50.152;8.182;2022-12-07T12:21:12;97315.06;;;4.17;100.00
31771;BME280;18343;50.152;8.182;2022-12-07T12:24:00;97316.75;;;4.18;100.00
31771;BME280;18343;50.152;8.182;2022-12-07T12:26:52;97312.25;;;4.19;100.00
31771;BME280;18343;50.152;8.182;2022-12-07T12:29:41;97305.09;;;4.19;100.00
31771;BME280;18343;50.152;8.182;2022-12-07T12:32:38;97311.25;;;4.20;100.00
31771;BME280;18343;50.152;8.182;2022-12-07T12:35:31;97310.28;;;4.21;100.00
31771;BME280;18343;50.152;8.182;2022-12-07T12:38:30;97305.78;;;4.21;100.00
31771;BME280;18343;50.152;8.182;2022-12-07T12:41:55;97301.97;;;4.24;100.00
31771;BME280;18343;50.152;8.182;2022-12-07T12:45:20;97294.97;;;4.23;100.00
31771;BME280;18343;50.152;8.182;2022-12-07T12:48:28;97290.50;;;4.23;100.00
31771;BME280;18343;50.152;8.182;2022-12-07T12:51:38;97302.66;;;4.26;100.00
31771;BME280;18343;50.152;8.182;2022-12-07T12:54:26;97291.19;;;4.25;100.00
31771;BME280;18343;50.152;8.182;2022-12-07T12:57:18;97285.84;;;4.25;100.00
31771;BME280;18343;50.152;8.182;2022-12-07T13:00:18;97283.88;;;4.27;100.00
31771;BME280;18343;50.152;8.182;2022-12-07T13:03:04;97281.91;;;4.29;100.00
31771;BME280;18343;50.152;8.182;2022-12-07T13:06:20;97288.88;;;4.30;100.00
31771;BME280;18343;50.152;8.182;2022-12-07T13:09:22;97274.91;;;4.28;100.00
31771;BME280;18343;50.152;8.182;2022-12-07T13:12:14;97276.56;;;4.29;100.00
31771;BME280;18343;50.152;8.182;2022-12-07T13:15:01;97269.25;;;4.31;100.00
31771;BME280;18343;50.152;8.182;2022-12-07T13:18:03;97274.59;;;4.31;100.00
31771;BME280;18343;50.152;8.182;2022-12-07T13:20:54;97279.75;;;4.33;100.00
31771;BME280;18343;50.152;8.182;2022-12-07T13:23:55;97277.09;;;4.33;100.00
31771;BME280;18343;50.152;8.182;2022-12-07T13:26:43;97280.59;;;4.33;100.00
31771;BME280;18343;50.152;8.182;2022-12-07T13:29:37;97278.75;;;4.34;100.00
31771;BME280;18343;50.152;8.182;2022-12-07T13:32:24;97283.94;;;4.35;100.00
31771;BME280;18343;50.152;8.182;2022-12-07T13:35:37;97284.09;;;4.34;100.00
31771;BME280;18343;50.152;8.182;2022-12-07T13:38:29;97297.56;;;4.32;100.00
31771;BME280;18343;50.152;8.182;2022-12-07T13:41:18;97292.38;;;4.31;100.00
31771;BME280;18343;50.152;8.182;2022-12-07T13:44:11;97284.56;;;4.29;100.00
31771;BME280;18343;50.152;8.182;2022-12-07T13:47:04;97279.22;;;4.29;100.00
31771;BME280;18343;50.152;8.182;2022-12-07T13:49:54;97273.91;;;4.29;100.00
31771;BME280;18343;50.152;8.182;2022-12-07T13:52:44;97274.75;;;4.30;100.00
31771;BME280;18343;50.152;8.182;2022-12-07T13:55:30;97271.25;;;4.29;100.00
31771;BME280;18343;50.152;8.182;2022-12-07T13:58:16;97275.72;;;4.29;100.00
31771;BME280;18343;50.152;8.182;2022-12-07T14:01:03;97267.75;;;4.29;100.00
31771;BME280;18343;50.152;8.182;2022-12-07T14:03:48;97267.75;;;4.29;100.00
31771;BME280;18343;50.152;8.182;2022-12-07T14:06:36;97273.06;;;4.29;100.00
31771;BME280;18343;50.152;8.182;2022-12-07T14:09:31;97265.09;;;4.29;100.00
31771;BME280;18343;50.152;8.182;2022-12-07T14:12:17;97270.25;;;4.30;100.00
31771;BME280;18343;50.152;8.182;2022-12-07T14:15:04;97274.75;;;4.30;100.00
31771;BME280;18343;50.152;8.182;2022-12-07T14:17:53;97276.41;;;4.31;100.00
31771;BME280;18343;50.152;8.182;2022-12-07T14:20:41;97276.41;;;4.31;100.00
31771;BME280;18343;50.152;8.182;2022-12-07T14:23:27;97263.94;;;4.31;100.00
31771;BME280;18343;50.152;8.182;2022-12-07T14:26:15;97269.41;;;4.30;100.00
31771;BME280;18343;50.152;8.182;2022-12-07T14:29:27;97272.91;;;4.30;100.00
31771;BME280;18343;50.152;8.182;2022-12-07T14:32:27;97276.56;;;4.29;100.00
31771;BME280;18343;50.152;8.182;2022-12-07T14:35:16;97260.59;;;4.29;100.00
31771;BME280;18343;50.152;8.182;2022-12-07T14:38:02;97264.94;;;4.30;100.00
31771;BME280;18343;50.152;8.182;2022-12-07T14:40:48;97259.59;;;4.30;100.00
31771;BME280;18343;50.152;8.182;2022-12-07T14:43:33;97258.63;;;4.31;100.00
31771;BME280;18343;50.152;8.182;2022-12-07T14:46:20;97263.94;;;4.31;100.00
31771;BME280;18343;50.152;8.182;2022-12-07T14:49:05;97259.44;;;4.32;100.00
31771;BME280;18343;50.152;8.182;2022-12-07T14:51:51;97258.63;;;4.31;100.00
31771;BME280;18343;50.152;8.182;2022-12-07T14:54:38;97263.94;;;4.31;100.00
31771;BME280;18343;50.152;8.182;2022-12-07T14:57:23;97263.94;;;4.31;100.00
31771;BME280;18343;50.152;8.182;2022-12-07T15:00:14;97258.63;;;4.31;100.00
31771;BME280;18343;50.152;8.182;2022-12-07T15:03:01;97265.75;;;4.31;100.00
31771;BME280;18343;50.152;8.182;2022-12-07T15:05:56;97256.94;;;4.30;100.00